sensor_id;sensor_type;location;lat;lon;timestamp;temperature;humidity
11304;DHT22;5707;49.588;12.148;2023-04-07T00:02:15;-4.00;99.90
11304;DHT22;5707;49.588;12.148;2023-04-07T00:04:41;-4.10;99.90
11304;DHT22;5707;49.588;12.148;2023-04-07T00:07:06;-4.10;99.90
11304;DHT22;5707;49.588;12.148;2023-04-07T00:09:33;-4.10;99.90
11304;DHT22;5707;49.588;12.148;2023-04-07T00:11:58;-4.20;99.90
11304;DHT22;5707;49.588;12.148;2023-04-07T00:14:27;-4.20;99.90
11304;DHT22;5707;49.588;12.148;2023-04-07T00:16:53;-4.20;99.90
11304;DHT22;5707;49.588;12.148;2023-04-07T00:19:18;-4.30;99.90
11304;DHT22;5707;49.588;12.148;2023-04-07T00:21:44;-4.30;99.90
11304;DHT22;5707;49.588;12.148;2023-04-07T00:24:09;-4.30;99.90
11304;DHT22;5707;49.588;12.148;2023-04-07T00:26:35;-4.30;99.90
11304;DHT22;5707;49.588;12.148;2023-04-07T00:29:01;-4.30;99.90
11304;DHT22;5707;49.588;12.148;2023-04-07T00:31:26;-4.40;99.90
11304;DHT22;5707;49.588;12.148;2023-04-07T00:33:52;-4.30;99.90
11304;DHT22;5707;49.588;12.148;2023-04-07T00:36:17;-4.40;99.90
11304;DHT22;5707;49.588;12.148;2023-04-07T00:38:43;-4.40;99.90
11304;DHT22;5707;49.588;12.148;2023-04-07T00:41:08;-4.50;99.90
11304;DHT22;5707;49.588;12.148;2023-04-07T00:43:34;-4.40;99.90
11304;DHT22;5707;49.588;12.148;2023-04-07T00:46:00;-4.50;99.90
11304;DHT22;5707;49.588;12.148;2023-04-07T00:48:26;-4.50;99.90
11304;DHT22;5707;49.588;12.148;2023-04-07T00:50:51;-4.50;99.90
11304;DHT22;5707;49.588;12.148;2023-04-07T00:53:18;-4.50;99.90
11304;DHT22;5707;49.588;12.148;2023-04-07T00:55:44;-4.50;99.90
11304;DHT22;5707;49.588;12.148;2023-04-07T00:58:10;-4.40;99.90
11304;DHT22;5707;49.588;12.148;2023-04-07T01:00:41;-4.50;99.90
11304;DHT22;5707;49.588;12.148;2023-04-07T01:03:15;-4.50;99.90
11304;DHT22;5707;49.588;12.148;2023-04-07T01:05:54;-4.50;99.90
11304;DHT22;5707;49.588;12.148;2023-04-07T01:10:52;-4.50;99.90
11304;DHT22;5707;49.588;12.148;2023-04-07T01:15:48;-4.50;99.90
11304;DHT22;5707;49.588;12.148;2023-04-07T01:18:23;-4.50;99.90
11304;DHT22;5707;49.588;12.148;2023-04-07T01:20:51;-4.60;99.90
11304;DHT22;5707;49.588;12.148;2023-04-07T01:26:32;-4.60;99.90
11304;DHT22;5707;49.588;12.148;2023-04-07T01:29:33;-4.60;99.90
11304;DHT22;5707;49.588;12.148;2023-04-07T01:32:01;-4.60;99.90
11304;DHT22;5707;49.588;12.148;2023-04-07T01:34:29;-4.70;99.90
11304;DHT22;5707;49.588;12.148;2023-04-07T01:36:56;-4.60;99.90
11304;DHT22;5707;49.588;12.148;2023-04-07T01:39:26;-4.60;99.90
11304;DHT22;5707;49.588;12.148;2023-04-07T01:41:52;-4.60;99.90
11304;DHT22;5707;49.588;12.148;2023-04-07T01:44:19;-4.70;99.90
11304;DHT22;5707;49.588;12.148;2023-04-07T01:46:45;-4.70;99.90
11304;DHT22;5707;49.588;12.148;2023-04-07T01:49:12;-4.70;99.90
11304;DHT22;5707;49.588;12.148;2023-04-07T01:51:39;-4.70;99.90
11304;DHT22;5707;49.588;12.148;2023-04-07T01:54:06;-4.70;99.90
11304;DHT22;5707;49.588;12.148;2023-04-07T01:56:32;-4.80;99.90
11304;DHT22;5707;49.588;12.148;2023-04-07T01:58:58;-4.80;99.90
11304;DHT22;5707;49.588;12.148;2023-04-07T02:01:24;-4.80;99.90
11304;DHT22;5707;49.588;12.148;2023-04-07T02:04:01;-4.80;99.90
11304;DHT22;5707;49.588;12.148;2023-04-07T02:06:33;-4.90;99.90
11304;DHT22;5707;49.588;12.148;2023-04-07T02:09:05;-4.90;99.90
11304;DHT22;5707;49.588;12.148;2023-04-07T02:11:32;-5.00;99.90
11304;DHT22;5707;49.588;12.148;2023-04-07T02:14:00;-5.00;99.90
11304;DHT22;5707;49.588;12.148;2023-04-07T02:16:28;-4.90;99.90
11304;DHT22;5707;49.588;12.148;2023-04-07T02:18:56;-4.90;99.90
11304;DHT22;5707;49.588;12.148;2023-04-07T02:21:22;-5.00;99.90
11304;DHT22;5707;49.588;12.148;2023-04-07T02:23:50;-5.00;99.90
11304;DHT22;5707;49.588;12.148;2023-04-07T02:26:15;-5.10;99.90
11304;DHT22;5707;49.588;12.148;2023-04-07T02:28:41;-5.10;99.90
11304;DHT22;5707;49.588;12.148;2023-04-07T02:31:06;-5.20;99.90
11304;DHT22;5707;49.588;12.148;2023-04-07T02:33:32;-5.20;99.90
11304;DHT22;5707;49.588;12.148;2023-04-07T02:35:57;-5.30;99.90
11304;DHT22;5707;49.588;12.148;2023-04-07T02:38:23;-5.20;99.90
11304;DHT22;5707;49.588;12.148;2023-04-07T02:40:48;-5.20;99.90
11304;DHT22;5707;49.588;12.148;2023-04-07T02:43:14;-5.30;99.90
11304;DHT22;5707;49.588;12.148;2023-04-07T02:45:42;-5.20;99.90
11304;DHT22;5707;49.588;12.148;2023-04-07T02:48:07;-5.30;99.90
11304;DHT22;5707;49.588;12.148;2023-04-07T02:50:33;-5.30;99.90
11304;DHT22;5707;49.588;12.148;2023-04-07T02:52:58;-5.30;99.90
11304;DHT22;5707;49.588;12.148;2023-04-07T02:55:24;-5.30;99.90
11304;DHT22;5707;49.588;12.148;2023-04-07T02:57:49;-5.30;99.90
11304;DHT22;5707;49.588;12.148;2023-04-07T03:00:15;-5.30;99.90
11304;DHT22;5707;49.588;12.148;2023-04-07T03:02:41;-5.30;99.90
11304;DHT22;5707;49.588;12.148;2023-04-07T03:05:07;-5.30;99.90
11304;DHT22;5707;49.588;12.148;2023-04-07T03:07:32;-5.30;99.90
11304;DHT22;5707;49.588;12.148;2023-04-07T03:09:58;-5.30;99.90
11304;DHT22;5707;49.588;12.148;2023-04-07T03:12:23;-5.30;99.90
11304;DHT22;5707;49.588;12.148;2023-04-07T03:14:49;-5.40;99.90
11304;DHT22;5707;49.588;12.148;2023-04-07T03:17:14;-5.40;99.90
11304;DHT22;5707;49.588;12.148;2023-04-07T03:19:40;-5.30;99.90
11304;DHT22;5707;49.588;12.148;2023-04-07T03:22:05;-5.30;99.90
11304;DHT22;5707;49.588;12.148;2023-04-07T03:24:31;-5.30;99.90
11304;DHT22;5707;49.588;12.148;2023-04-07T03:26:57;-5.30;99.90
11304;DHT22;5707;49.588;12.148;2023-04-07T03:29:22;-5.30;99.90
11304;DHT22;5707;49.588;12.148;2023-04-07T03:31:48;-5.30;99.90
11304;DHT22;5707;49.588;12.148;2023-04-07T03:34:14;-5.30;99.90
11304;DHT22;5707;49.588;12.148;2023-04-07T03:36:40;-5.40;99.90
11304;DHT22;5707;49.588;12.148;2023-04-07T03:39:05;-5.50;99.90
11304;DHT22;5707;49.588;12.148;2023-04-07T03:41:31;-5.50;99.90
11304;DHT22;5707;49.588;12.148;2023-04-07T03:43:57;-5.50;99.90
11304;DHT22;5707;49.588;12.148;2023-04-07T03:46:22;-5.50;99.90
11304;DHT22;5707;49.588;12.148;2023-04-07T03:48:48;-5.50;99.90
11304;DHT22;5707;49.588;12.148;2023-04-07T03:51:14;-5.50;99.90
11304;DHT22;5707;49.588;12.148;2023-04-07T03:53:40;-5.50;99.90
11304;DHT22;5707;49.588;12.148;2023-04-07T03:56:06;-5.50;99.90
11304;DHT22;5707;49.588;12.148;2023-04-07T03:58:32;-5.50;99.90
11304;DHT22;5707;49.588;12.148;2023-04-07T04:00:57;-5.50;99.90
11304;DHT22;5707;49.588;12.148;2023-04-07T04:03:23;-5.50;99.90
11304;DHT22;5707;49.588;12.148;2023-04-07T04:05:48;-5.50;99.90
11304;DHT22;5707;49.588;12.148;2023-04-07T04:08:14;-5.50;99.90
11304;DHT22;5707;49.588;12.148;2023-04-07T04:10:39;-5.60;99.90
11304;DHT22;5707;49.588;12.148;2023-04-07T04:13:05;-5.50;99.90
11304;DHT22;5707;49.588;12.148;2023-04-07T04:15:32;-5.60;99.90
11304;DHT22;5707;49.588;12.148;2023-04-07T04:17:58;-5.60;99.90
11304;DHT22;5707;49.588;12.148;2023-04-07T04:20:23;-5.60;99.90
11304;DHT22;5707;49.588;12.148;2023-04-07T04:22:49;-5.60;99.90
11304;DHT22;5707;49.588;12.148;2023-04-07T04:25:15;-5.60;99.90
11304;DHT22;5707;49.588;12.148;2023-04-07T04:27:42;-5.60;99.90
11304;DHT22;5707;49.588;12.148;2023-04-07T04:30:08;-5.60;99.90
11304;DHT22;5707;49.588;12.148;2023-04-07T04:32:34;-5.70;99.90
11304;DHT22;5707;49.588;12.148;2023-04-07T04:35:00;-5.70;99.90
11304;DHT22;5707;49.588;12.148;2023-04-07T04:37:27;-5.70;99.90
11304;DHT22;5707;49.588;12.148;2023-04-07T04:39:52;-5.70;99.90
11304;DHT22;5707;49.588;12.148;2023-04-07T04:42:18;-5.70;99.90
11304;DHT22;5707;49.588;12.148;2023-04-07T04:44:43;-5.70;99.90
11304;DHT22;5707;49.588;12.148;2023-04-07T04:47:09;-5.70;99.90
11304;DHT22;5707;49.588;12.148;2023-04-07T04:49:34;-5.70;99.90
11304;DHT22;5707;49.588;12.148;2023-04-07T04:52:00;-5.70;99.90
11304;DHT22;5707;49.588;12.148;2023-04-07T04:54:26;-5.60;99.90
11304;DHT22;5707;49.588;12.148;2023-04-07T04:56:51;-5.60;99.90
11304;DHT22;5707;49.588;12.148;2023-04-07T04:59:17;-5.50;99.90
11304;DHT22;5707;49.588;12.148;2023-04-07T05:01:42;-5.50;99.90
11304;DHT22;5707;49.588;12.148;2023-04-07T05:04:08;-5.40;99.90
11304;DHT22;5707;49.588;12.148;2023-04-07T05:06:34;-5.40;99.90
11304;DHT22;5707;49.588;12.148;2023-04-07T05:09:00;-5.30;99.90
11304;DHT22;5707;49.588;12.148;2023-04-07T05:11:25;-5.20;99.90
11304;DHT22;5707;49.588;12.148;2023-04-07T05:13:51;-5.10;99.90
11304;DHT22;5707;49.588;12.148;2023-04-07T05:16:17;-5.00;99.90
11304;DHT22;5707;49.588;12.148;2023-04-07T05:18:42;-4.90;99.90
11304;DHT22;5707;49.588;12.148;2023-04-07T05:21:08;-4.90;99.90
11304;DHT22;5707;49.588;12.148;2023-04-07T05:23:34;-4.80;99.90
11304;DHT22;5707;49.588;12.148;2023-04-07T05:26:00;-4.70;99.90
11304;DHT22;5707;49.588;12.148;2023-04-07T05:28:26;-4.50;99.90
11304;DHT22;5707;49.588;12.148;2023-04-07T05:30:51;-4.30;99.90
11304;DHT22;5707;49.588;12.148;2023-04-07T05:33:17;-4.10;99.90
11304;DHT22;5707;49.588;12.148;2023-04-07T05:35:45;-3.90;99.90
11304;DHT22;5707;49.588;12.148;2023-04-07T05:38:12;-3.80;99.90
11304;DHT22;5707;49.588;12.148;2023-04-07T05:40:38;-3.60;99.90
11304;DHT22;5707;49.588;12.148;2023-04-07T05:43:04;-3.50;99.90
11304;DHT22;5707;49.588;12.148;2023-04-07T05:45:30;-3.40;99.90
11304;DHT22;5707;49.588;12.148;2023-04-07T05:47:55;-3.20;99.90
11304;DHT22;5707;49.588;12.148;2023-04-07T05:50:21;-3.10;99.90
11304;DHT22;5707;49.588;12.148;2023-04-07T05:52:46;-2.90;99.90
11304;DHT22;5707;49.588;12.148;2023-04-07T05:55:12;-2.80;99.90
11304;DHT22;5707;49.588;12.148;2023-04-07T05:57:37;-2.60;99.90
11304;DHT22;5707;49.588;12.148;2023-04-07T06:00:03;-2.50;99.90
11304;DHT22;5707;49.588;12.148;2023-04-07T06:02:29;-2.30;99.90
11304;DHT22;5707;49.588;12.148;2023-04-07T06:04:55;-2.20;99.90
11304;DHT22;5707;49.588;12.148;2023-04-07T06:07:20;-2.10;99.90
11304;DHT22;5707;49.588;12.148;2023-04-07T06:09:46;-1.90;99.90
11304;DHT22;5707;49.588;12.148;2023-04-07T06:12:11;-1.80;99.90
11304;DHT22;5707;49.588;12.148;2023-04-07T06:14:38;-1.70;99.90
11304;DHT22;5707;49.588;12.148;2023-04-07T06:17:03;-1.60;99.90
11304;DHT22;5707;49.588;12.148;2023-04-07T06:19:31;-1.50;99.90
11304;DHT22;5707;49.588;12.148;2023-04-07T06:21:57;-1.40;99.90
11304;DHT22;5707;49.588;12.148;2023-04-07T06:24:22;-1.30;99.90
11304;DHT22;5707;49.588;12.148;2023-04-07T06:26:50;-1.20;99.90
11304;DHT22;5707;49.588;12.148;2023-04-07T06:29:16;-1.10;99.90
11304;DHT22;5707;49.588;12.148;2023-04-07T06:31:41;-1.00;99.90
11304;DHT22;5707;49.588;12.148;2023-04-07T06:34:07;-0.90;99.90
11304;DHT22;5707;49.588;12.148;2023-04-07T06:36:33;-0.80;99.90
11304;DHT22;5707;49.588;12.148;2023-04-07T06:38:58;-0.70;99.90
11304;DHT22;5707;49.588;12.148;2023-04-07T06:41:24;-0.60;99.90
11304;DHT22;5707;49.588;12.148;2023-04-07T06:43:50;-0.60;99.90
11304;DHT22;5707;49.588;12.148;2023-04-07T06:46:16;-0.50;99.90
11304;DHT22;5707;49.588;12.148;2023-04-07T06:48:41;-0.40;99.90
11304;DHT22;5707;49.588;12.148;2023-04-07T06:51:07;-0.30;99.90
11304;DHT22;5707;49.588;12.148;2023-04-07T06:53:32;-0.20;99.90
11304;DHT22;5707;49.588;12.148;2023-04-07T06:56:08;-0.10;99.90
11304;DHT22;5707;49.588;12.148;2023-04-07T06:58:34;-0.10;99.90
11304;DHT22;5707;49.588;12.148;2023-04-07T07:01:00;0.00;99.90
11304;DHT22;5707;49.588;12.148;2023-04-07T07:03:27;0.00;99.90
11304;DHT22;5707;49.588;12.148;2023-04-07T07:05:54;0.10;99.90
11304;DHT22;5707;49.588;12.148;2023-04-07T07:08:21;0.10;99.90
11304;DHT22;5707;49.588;12.148;2023-04-07T07:10:47;0.20;99.90
11304;DHT22;5707;49.588;12.148;2023-04-07T07:13:12;0.30;99.90
11304;DHT22;5707;49.588;12.148;2023-04-07T07:15:38;0.40;99.90
11304;DHT22;5707;49.588;12.148;2023-04-07T07:18:03;0.50;99.90
11304;DHT22;5707;49.588;12.148;2023-04-07T07:20:29;0.80;99.90
11304;DHT22;5707;49.588;12.148;2023-04-07T07:22:55;1.00;99.90
11304;DHT22;5707;49.588;12.148;2023-04-07T07:25:21;1.10;99.90
11304;DHT22;5707;49.588;12.148;2023-04-07T07:27:47;1.40;99.90
11304;DHT22;5707;49.588;12.148;2023-04-07T07:30:16;1.50;99.90
11304;DHT22;5707;49.588;12.148;2023-04-07T07:32:41;1.60;99.90
11304;DHT22;5707;49.588;12.148;2023-04-07T07:35:07;1.80;99.90
11304;DHT22;5707;49.588;12.148;2023-04-07T07:37:33;2.00;99.90
11304;DHT22;5707;49.588;12.148;2023-04-07T07:39:58;2.20;99.90
11304;DHT22;5707;49.588;12.148;2023-04-07T07:42:24;2.40;99.90
11304;DHT22;5707;49.588;12.148;2023-04-07T07:44:49;2.70;99.90
11304;DHT22;5707;49.588;12.148;2023-04-07T07:47:15;3.00;99.90
11304;DHT22;5707;49.588;12.148;2023-04-07T07:49:40;3.30;99.90
11304;DHT22;5707;49.588;12.148;2023-04-07T07:52:06;3.50;99.90
11304;DHT22;5707;49.588;12.148;2023-04-07T07:54:32;3.70;99.90
11304;DHT22;5707;49.588;12.148;2023-04-07T07:56:57;3.90;99.90
11304;DHT22;5707;49.588;12.148;2023-04-07T07:59:23;4.10;99.90
11304;DHT22;5707;49.588;12.148;2023-04-07T08:01:48;4.30;99.90
11304;DHT22;5707;49.588;12.148;2023-04-07T08:04:14;4.40;99.90
11304;DHT22;5707;49.588;12.148;2023-04-07T08:06:40;4.60;99.90
11304;DHT22;5707;49.588;12.148;2023-04-07T08:09:06;4.80;99.90
11304;DHT22;5707;49.588;12.148;2023-04-07T08:11:32;5.00;99.90
11304;DHT22;5707;49.588;12.148;2023-04-07T08:13:57;5.30;99.90
11304;DHT22;5707;49.588;12.148;2023-04-07T08:16:23;5.60;99.90
11304;DHT22;5707;49.588;12.148;2023-04-07T08:18:49;5.70;99.90
11304;DHT22;5707;49.588;12.148;2023-04-07T08:21:14;5.80;99.90
11304;DHT22;5707;49.588;12.148;2023-04-07T08:23:40;5.80;99.90
11304;DHT22;5707;49.588;12.148;2023-04-07T08:26:06;6.00;99.90
11304;DHT22;5707;49.588;12.148;2023-04-07T08:28:31;6.10;99.90
11304;DHT22;5707;49.588;12.148;2023-04-07T08:30:57;6.30;99.90
11304;DHT22;5707;49.588;12.148;2023-04-07T08:33:22;6.50;99.90
11304;DHT22;5707;49.588;12.148;2023-04-07T08:35:48;6.90;99.90
11304;DHT22;5707;49.588;12.148;2023-04-07T08:38:14;7.20;99.90
11304;DHT22;5707;49.588;12.148;2023-04-07T08:40:39;7.50;99.90
11304;DHT22;5707;49.588;12.148;2023-04-07T08:43:07;7.70;99.90
11304;DHT22;5707;49.588;12.148;2023-04-07T08:45:38;7.80;99.90
11304;DHT22;5707;49.588;12.148;2023-04-07T08:48:10;8.10;99.90
11304;DHT22;5707;49.588;12.148;2023-04-07T08:50:41;8.50;99.10
11304;DHT22;5707;49.588;12.148;2023-04-07T08:53:12;8.70;96.70
11304;DHT22;5707;49.588;12.148;2023-04-07T08:55:41;8.80;95.30
11304;DHT22;5707;49.588;12.148;2023-04-07T08:58:09;9.10;93.80
11304;DHT22;5707;49.588;12.148;2023-04-07T09:00:39;9.40;91.40
11304;DHT22;5707;49.588;12.148;2023-04-07T09:03:07;9.50;88.80
11304;DHT22;5707;49.588;12.148;2023-04-07T09:05:33;9.60;86.80
11304;DHT22;5707;49.588;12.148;2023-04-07T09:07:59;9.50;86.30
11304;DHT22;5707;49.588;12.148;2023-04-07T09:10:25;9.50;87.40
11304;DHT22;5707;49.588;12.148;2023-04-07T09:12:51;9.60;90.00
11304;DHT22;5707;49.588;12.148;2023-04-07T09:15:16;9.50;89.70
11304;DHT22;5707;49.588;12.148;2023-04-07T09:17:42;9.20;87.00
11304;DHT22;5707;49.588;12.148;2023-04-07T09:20:08;8.90;91.50
11304;DHT22;5707;49.588;12.148;2023-04-07T09:22:37;8.90;91.60
11304;DHT22;5707;49.588;12.148;2023-04-07T09:25:17;8.80;90.40
11304;DHT22;5707;49.588;12.148;2023-04-07T09:30:24;8.90;91.50
11304;DHT22;5707;49.588;12.148;2023-04-07T09:32:50;8.90;92.20
11304;DHT22;5707;49.588;12.148;2023-04-07T09:35:16;9.00;91.60
11304;DHT22;5707;49.588;12.148;2023-04-07T09:37:42;9.20;90.70
11304;DHT22;5707;49.588;12.148;2023-04-07T09:40:08;9.40;90.60
11304;DHT22;5707;49.588;12.148;2023-04-07T09:42:34;9.50;90.10
11304;DHT22;5707;49.588;12.148;2023-04-07T09:45:02;9.80;91.40
11304;DHT22;5707;49.588;12.148;2023-04-07T09:47:28;10.30;90.30
11304;DHT22;5707;49.588;12.148;2023-04-07T09:49:56;11.00;91.20
11304;DHT22;5707;49.588;12.148;2023-04-07T09:52:46;11.70;87.50
11304;DHT22;5707;49.588;12.148;2023-04-07T09:55:12;12.10;79.70
11304;DHT22;5707;49.588;12.148;2023-04-07T09:57:38;12.60;75.50
11304;DHT22;5707;49.588;12.148;2023-04-07T10:00:05;13.00;69.50
11304;DHT22;5707;49.588;12.148;2023-04-07T10:02:31;13.60;69.20
11304;DHT22;5707;49.588;12.148;2023-04-07T10:04:58;14.10;51.20
11304;DHT22;5707;49.588;12.148;2023-04-07T10:07:24;14.20;39.40
11304;DHT22;5707;49.588;12.148;2023-04-07T10:09:50;14.20;35.80
11304;DHT22;5707;49.588;12.148;2023-04-07T10:12:16;14.40;37.20
11304;DHT22;5707;49.588;12.148;2023-04-07T10:14:42;14.30;34.90
11304;DHT22;5707;49.588;12.148;2023-04-07T10:17:12;14.00;30.70
11304;DHT22;5707;49.588;12.148;2023-04-07T10:19:43;13.90;25.60
11304;DHT22;5707;49.588;12.148;2023-04-07T10:22:10;13.60;24.70
11304;DHT22;5707;49.588;12.148;2023-04-07T10:24:49;13.40;26.60
11304;DHT22;5707;49.588;12.148;2023-04-07T10:27:20;13.20;26.40
11304;DHT22;5707;49.588;12.148;2023-04-07T10:29:48;13.10;27.00
11304;DHT22;5707;49.588;12.148;2023-04-07T10:32:15;12.90;28.50
11304;DHT22;5707;49.588;12.148;2023-04-07T10:37:13;12.90;30.70
11304;DHT22;5707;49.588;12.148;2023-04-07T10:39:42;13.00;38.30
11304;DHT22;5707;49.588;12.148;2023-04-07T10:45:06;12.60;40.70
11304;DHT22;5707;49.588;12.148;2023-04-07T10:47:33;12.60;41.30
11304;DHT22;5707;49.588;12.148;2023-04-07T10:50:20;12.60;35.30
11304;DHT22;5707;49.588;12.148;2023-04-07T10:53:09;12.60;35.40
11304;DHT22;5707;49.588;12.148;2023-04-07T10:55:41;12.60;32.90
11304;DHT22;5707;49.588;12.148;2023-04-07T11:03:26;12.90;38.30
11304;DHT22;5707;49.588;12.148;2023-04-07T11:05:51;13.10;34.60
11304;DHT22;5707;49.588;12.148;2023-04-07T11:08:43;13.30;34.20
11304;DHT22;5707;49.588;12.148;2023-04-07T11:11:55;13.50;32.00
11304;DHT22;5707;49.588;12.148;2023-04-07T11:13:56;13.60;31.60
11304;DHT22;5707;49.588;12.148;2023-04-07T11:16:34;13.90;30.30
11304;DHT22;5707;49.588;12.148;2023-04-07T11:19:00;14.00;29.40
11304;DHT22;5707;49.588;12.148;2023-04-07T11:21:26;13.90;29.60
11304;DHT22;5707;49.588;12.148;2023-04-07T11:23:52;14.00;32.50
11304;DHT22;5707;49.588;12.148;2023-04-07T11:26:17;14.00;32.30
11304;DHT22;5707;49.588;12.148;2023-04-07T11:28:47;14.10;30.00
11304;DHT22;5707;49.588;12.148;2023-04-07T11:31:29;14.30;32.30
11304;DHT22;5707;49.588;12.148;2023-04-07T11:34:00;14.40;31.80
11304;DHT22;5707;49.588;12.148;2023-04-07T11:36:30;14.70;31.90
11304;DHT22;5707;49.588;12.148;2023-04-07T11:38:57;14.60;29.60
11304;DHT22;5707;49.588;12.148;2023-04-07T11:41:24;14.40;28.10
11304;DHT22;5707;49.588;12.148;2023-04-07T11:44:08;14.30;28.80
11304;DHT22;5707;49.588;12.148;2023-04-07T11:46:35;14.10;31.60
11304;DHT22;5707;49.588;12.148;2023-04-07T11:49:12;13.90;29.60
11304;DHT22;5707;49.588;12.148;2023-04-07T11:51:39;13.50;29.30
11304;DHT22;5707;49.588;12.148;2023-04-07T11:54:05;13.40;33.70
11304;DHT22;5707;49.588;12.148;2023-04-07T11:56:41;13.40;31.10
11304;DHT22;5707;49.588;12.148;2023-04-07T11:59:07;13.50;31.20
11304;DHT22;5707;49.588;12.148;2023-04-07T12:01:39;13.50;30.90
11304;DHT22;5707;49.588;12.148;2023-04-07T12:04:06;13.50;32.10
11304;DHT22;5707;49.588;12.148;2023-04-07T12:06:36;13.70;35.00
11304;DHT22;5707;49.588;12.148;2023-04-07T12:11:55;13.60;32.30
11304;DHT22;5707;49.588;12.148;2023-04-07T12:14:22;13.50;33.80
11304;DHT22;5707;49.588;12.148;2023-04-07T12:16:48;13.40;35.50
11304;DHT22;5707;49.588;12.148;2023-04-07T12:19:13;13.30;30.80
11304;DHT22;5707;49.588;12.148;2023-04-07T12:24:07;13.30;31.60
11304;DHT22;5707;49.588;12.148;2023-04-07T12:26:32;13.30;30.60
11304;DHT22;5707;49.588;12.148;2023-04-07T12:28:58;13.30;31.10
11304;DHT22;5707;49.588;12.148;2023-04-07T12:31:32;13.30;29.90
11304;DHT22;5707;49.588;12.148;2023-04-07T12:33:58;13.30;28.60
11304;DHT22;5707;49.588;12.148;2023-04-07T12:36:24;13.30;28.90
11304;DHT22;5707;49.588;12.148;2023-04-07T12:38:52;13.10;30.00
11304;DHT22;5707;49.588;12.148;2023-04-07T12:41:18;13.20;29.90
11304;DHT22;5707;49.588;12.148;2023-04-07T12:43:44;13.50;30.40
11304;DHT22;5707;49.588;12.148;2023-04-07T12:46:09;13.50;28.80
11304;DHT22;5707;49.588;12.148;2023-04-07T12:48:35;13.50;29.00
11304;DHT22;5707;49.588;12.148;2023-04-07T12:51:00;13.50;27.20
11304;DHT22;5707;49.588;12.148;2023-04-07T12:53:26;13.60;28.90
11304;DHT22;5707;49.588;12.148;2023-04-07T12:55:52;13.60;28.30
11304;DHT22;5707;49.588;12.148;2023-04-07T12:58:17;13.60;27.40
11304;DHT22;5707;49.588;12.148;2023-04-07T13:00:44;13.60;26.40
11304;DHT22;5707;49.588;12.148;2023-04-07T13:03:11;13.70;28.10
11304;DHT22;5707;49.588;12.148;2023-04-07T13:05:36;13.80;27.00
11304;DHT22;5707;49.588;12.148;2023-04-07T13:08:02;13.90;25.50
11304;DHT22;5707;49.588;12.148;2023-04-07T13:10:28;14.00;29.40
11304;DHT22;5707;49.588;12.148;2023-04-07T13:12:54;14.30;24.90
11304;DHT22;5707;49.588;12.148;2023-04-07T13:15:20;14.40;25.30
11304;DHT22;5707;49.588;12.148;2023-04-07T13:17:45;14.60;23.60
11304;DHT22;5707;49.588;12.148;2023-04-07T13:20:11;14.80;24.20
11304;DHT22;5707;49.588;12.148;2023-04-07T13:22:37;14.90;20.50
11304;DHT22;5707;49.588;12.148;2023-04-07T13:25:03;14.80;21.50
11304;DHT22;5707;49.588;12.148;2023-04-07T13:27:29;15.10;24.70
11304;DHT22;5707;49.588;12.148;2023-04-07T13:29:55;15.10;20.80
11304;DHT22;5707;49.588;12.148;2023-04-07T13:32:20;15.00;19.70
11304;DHT22;5707;49.588;12.148;2023-04-07T13:34:46;15.20;20.30
11304;DHT22;5707;49.588;12.148;2023-04-07T13:37:12;15.30;23.60
11304;DHT22;5707;49.588;12.148;2023-04-07T13:39:37;15.50;20.60
11304;DHT22;5707;49.588;12.148;2023-04-07T13:42:03;15.70;20.80
11304;DHT22;5707;49.588;12.148;2023-04-07T13:44:29;15.80;22.60
11304;DHT22;5707;49.588;12.148;2023-04-07T13:46:55;15.60;18.80
11304;DHT22;5707;49.588;12.148;2023-04-07T13:49:22;15.10;19.20
11304;DHT22;5707;49.588;12.148;2023-04-07T13:51:48;14.90;19.10
11304;DHT22;5707;49.588;12.148;2023-04-07T13:54:16;14.70;20.00
11304;DHT22;5707;49.588;12.148;2023-04-07T13:56:42;14.70;20.40
11304;DHT22;5707;49.588;12.148;2023-04-07T13:59:08;14.60;22.30
11304;DHT22;5707;49.588;12.148;2023-04-07T14:01:34;14.50;22.50
11304;DHT22;5707;49.588;12.148;2023-04-07T14:04:00;14.30;24.70
11304;DHT22;5707;49.588;12.148;2023-04-07T14:06:27;14.30;24.90
11304;DHT22;5707;49.588;12.148;2023-04-07T14:08:53;14.40;24.30
11304;DHT22;5707;49.588;12.148;2023-04-07T14:11:19;14.50;22.80
11304;DHT22;5707;49.588;12.148;2023-04-07T14:13:46;14.40;21.70
11304;DHT22;5707;49.588;12.148;2023-04-07T14:16:12;14.60;23.50
11304;DHT22;5707;49.588;12.148;2023-04-07T14:18:38;14.60;21.20
11304;DHT22;5707;49.588;12.148;2023-04-07T14:21:04;14.70;22.30
11304;DHT22;5707;49.588;12.148;2023-04-07T14:23:30;14.80;20.00
11304;DHT22;5707;49.588;12.148;2023-04-07T14:25:58;14.60;19.00
11304;DHT22;5707;49.588;12.148;2023-04-07T14:28:25;14.40;21.10
11304;DHT22;5707;49.588;12.148;2023-04-07T14:30:51;14.30;18.80
11304;DHT22;5707;49.588;12.148;2023-04-07T14:33:17;14.30;18.90
11304;DHT22;5707;49.588;12.148;2023-04-07T14:35:43;14.20;19.70
11304;DHT22;5707;49.588;12.148;2023-04-07T14:38:09;14.50;19.10
11304;DHT22;5707;49.588;12.148;2023-04-07T14:40:35;14.50;19.70
11304;DHT22;5707;49.588;12.148;2023-04-07T14:43:01;14.50;20.10
11304;DHT22;5707;49.588;12.148;2023-04-07T14:45:27;14.40;20.00
11304;DHT22;5707;49.588;12.148;2023-04-07T14:47:53;14.10;19.90
11304;DHT22;5707;49.588;12.148;2023-04-07T14:50:19;13.80;19.80
11304;DHT22;5707;49.588;12.148;2023-04-07T14:52:44;13.60;20.30
11304;DHT22;5707;49.588;12.148;2023-04-07T14:55:10;13.50;20.60
11304;DHT22;5707;49.588;12.148;2023-04-07T14:57:35;13.50;21.20
11304;DHT22;5707;49.588;12.148;2023-04-07T15:00:02;13.40;20.40
11304;DHT22;5707;49.588;12.148;2023-04-07T15:02:28;13.30;20.00
11304;DHT22;5707;49.588;12.148;2023-04-07T15:04:56;13.20;20.40
11304;DHT22;5707;49.588;12.148;2023-04-07T15:07:22;13.10;20.10
11304;DHT22;5707;49.588;12.148;2023-04-07T15:09:48;13.00;21.00
11304;DHT22;5707;49.588;12.148;2023-04-07T15:12:13;12.80;21.40
11304;DHT22;5707;49.588;12.148;2023-04-07T15:14:39;12.70;20.80
11304;DHT22;5707;49.588;12.148;2023-04-07T15:17:04;12.60;21.80
11304;DHT22;5707;49.588;12.148;2023-04-07T15:19:30;12.60;21.80
11304;DHT22;5707;49.588;12.148;2023-04-07T15:21:55;12.60;22.20
11304;DHT22;5707;49.588;12.148;2023-04-07T15:24:21;12.70;19.70
11304;DHT22;5707;49.588;12.148;2023-04-07T15:26:47;12.80;19.40
11304;DHT22;5707;49.588;12.148;2023-04-07T15:29:13;13.00;20.20
11304;DHT22;5707;49.588;12.148;2023-04-07T15:31:39;13.30;18.30
11304;DHT22;5707;49.588;12.148;2023-04-07T15:34:04;13.50;18.90
11304;DHT22;5707;49.588;12.148;2023-04-07T15:36:30;13.80;19.50
11304;DHT22;5707;49.588;12.148;2023-04-07T15:38:56;14.10;19.80
11304;DHT22;5707;49.588;12.148;2023-04-07T15:41:21;14.40;19.50
11304;DHT22;5707;49.588;12.148;2023-04-07T15:43:47;14.40;18.60
11304;DHT22;5707;49.588;12.148;2023-04-07T15:46:14;14.40;20.60
11304;DHT22;5707;49.588;12.148;2023-04-07T15:48:40;14.30;17.00
11304;DHT22;5707;49.588;12.148;2023-04-07T15:51:05;14.40;16.50
11304;DHT22;5707;49.588;12.148;2023-04-07T15:53:31;14.60;16.50
11304;DHT22;5707;49.588;12.148;2023-04-07T15:55:56;14.60;17.20
11304;DHT22;5707;49.588;12.148;2023-04-07T15:58:22;14.60;16.90